createdAt,value
2023-02-19T00:00:13.247Z,96.79
2023-02-19T00:01:13.261Z,96.79
2023-02-19T00:02:13.216Z,96.69
2023-02-19T00:03:13.256Z,96.69
2023-02-19T00:04:13.205Z,96.69
2023-02-19T00:05:13.253Z,96.58
2023-02-19T00:06:13.207Z,96.58
2023-02-19T00:07:13.193Z,96.48
2023-02-19T00:08:13.165Z,96.48
2023-02-19T00:09:13.180Z,96.38
2023-02-19T00:10:13.129Z,96.28
2023-02-19T00:11:13.138Z,96.28
2023-02-19T00:12:13.137Z,96.17
2023-02-19T00:13:13.149Z,96.17
2023-02-19T00:14:13.089Z,96.07
2023-02-19T00:15:13.103Z,96.07
2023-02-19T00:16:13.051Z,96.07
2023-02-19T00:17:13.113Z,95.97
2023-02-19T00:18:13.050Z,95.97
2023-02-19T00:19:13.065Z,96.07
2023-02-19T00:20:13.021Z,96.07
2023-02-19T00:21:13.092Z,96.07
2023-02-19T00:22:12.990Z,96.28
2023-02-19T00:23:13.024Z,96.38
2023-02-19T00:24:12.967Z,96.38
2023-02-19T00:25:13.005Z,96.48
2023-02-19T00:26:18.423Z,96.48
2023-02-19T00:27:13.963Z,96.58
2023-02-19T00:28:12.936Z,96.69
2023-02-19T00:29:12.956Z,96.79
2023-02-19T00:30:12.978Z,96.79
2023-02-19T00:31:13.324Z,96.89
2023-02-19T00:32:12.938Z,96.89
2023-02-19T00:33:12.895Z,96.99
2023-02-19T00:34:12.862Z,97.09
2023-02-19T00:35:12.916Z,97.09
2023-02-19T00:36:12.831Z,97.09
2023-02-19T00:37:12.873Z,97.09
2023-02-19T00:38:12.807Z,97.09
2023-02-19T00:39:12.872Z,97.09
2023-02-19T00:40:12.802Z,97.09
2023-02-19T00:41:12.802Z,97.09
2023-02-19T00:42:12.780Z,97.09
2023-02-19T00:43:12.782Z,97.09
2023-02-19T00:44:12.760Z,97.09
2023-02-19T00:45:12.764Z,97.09
2023-02-19T00:46:12.810Z,97.20
2023-02-19T00:47:12.742Z,97.30
2023-02-19T00:48:12.720Z,97.40
2023-02-19T00:49:12.730Z,97.40
2023-02-19T00:50:12.690Z,97.50
2023-02-19T00:51:12.815Z,97.50
2023-02-19T00:52:12.665Z,97.50
2023-02-19T00:53:12.692Z,97.50
2023-02-19T00:54:12.679Z,97.50
2023-02-19T00:55:12.655Z,97.50
2023-02-19T00:56:12.630Z,97.50
2023-02-19T00:57:12.621Z,97.61
2023-02-19T00:58:12.628Z,97.61
2023-02-19T00:59:12.626Z,97.50
2023-02-19T01:00:12.614Z,97.50
2023-02-19T01:01:12.653Z,97.65
2023-02-19T01:02:12.564Z,97.61
2023-02-19T01:03:12.565Z,97.65
2023-02-19T01:04:12.536Z,97.65
2023-02-19T01:05:12.586Z,97.65
2023-02-19T01:06:12.544Z,97.65
2023-02-19T01:07:12.526Z,97.65
2023-02-19T01:08:12.497Z,97.65
2023-02-19T01:09:12.703Z,97.61
2023-02-19T01:10:12.461Z,97.61
2023-02-19T01:11:12.919Z,97.50
2023-02-19T01:12:12.457Z,97.50
2023-02-19T01:13:12.441Z,97.40
2023-02-19T01:14:12.433Z,97.45
2023-02-19T01:15:12.533Z,97.55
2023-02-19T01:16:12.474Z,97.55
2023-02-19T01:17:12.435Z,97.55
2023-02-19T01:18:12.368Z,97.40
2023-02-19T01:19:12.366Z,97.40
2023-02-19T01:20:12.370Z,97.45
2023-02-19T01:21:12.536Z,97.24
2023-02-19T01:22:12.320Z,97.24
2023-02-19T01:23:12.342Z,97.24
2023-02-19T01:24:12.299Z,97.14
2023-02-19T01:25:12.310Z,97.14
2023-02-19T01:26:12.322Z,97.09
2023-02-19T01:27:12.306Z,97.09
2023-02-19T01:28:12.252Z,96.94
2023-02-19T01:29:12.269Z,96.89
2023-02-19T01:30:12.257Z,96.83
2023-02-19T01:31:12.702Z,96.89
2023-02-19T01:32:12.324Z,96.83
2023-02-19T01:33:12.245Z,96.83
2023-02-19T01:34:13.474Z,96.83
2023-02-19T01:35:12.194Z,96.73
2023-02-19T01:36:12.176Z,96.42
2023-02-19T01:37:12.194Z,96.42
2023-02-19T01:38:13.243Z,96.42
2023-02-19T01:39:12.143Z,96.53
2023-02-19T01:40:12.112Z,96.58
2023-02-19T01:41:12.400Z,96.48
2023-02-19T01:42:12.117Z,96.28
2023-02-19T01:43:12.134Z,96.17
2023-02-19T01:44:12.078Z,96.07
2023-02-19T01:45:12.829Z,95.97
2023-02-19T01:46:12.049Z,95.76
2023-02-19T01:47:12.059Z,95.76
2023-02-19T01:48:13.275Z,95.66
2023-02-19T01:49:12.073Z,95.56
2023-02-19T01:50:13.329Z,95.36
2023-02-19T01:51:12.938Z,95.36
2023-02-19T01:52:11.997Z,95.25
2023-02-19T01:53:12.858Z,95.25
2023-02-19T01:54:12.932Z,95.25
2023-02-19T01:55:11.972Z,95.15
2023-02-19T01:56:11.970Z,95.15
2023-02-19T01:57:12.942Z,95.05
2023-02-19T01:58:11.953Z,94.80
2023-02-19T01:59:11.947Z,94.64
2023-02-19T02:00:11.933Z,94.54
2023-02-19T02:01:12.402Z,94.39
2023-02-19T02:02:18.263Z,94.39
2023-02-19T02:03:11.897Z,94.49
2023-02-19T02:04:11.868Z,94.18
2023-02-19T02:05:11.857Z,93.98
2023-02-19T02:06:11.824Z,93.98
2023-02-19T02:07:11.860Z,94.08
2023-02-19T02:08:11.795Z,94.08
2023-02-19T02:09:12.773Z,93.98
2023-02-19T02:10:12.750Z,93.88
2023-02-19T02:11:12.049Z,93.88
2023-02-19T02:12:11.768Z,93.77
2023-02-19T02:13:11.773Z,93.67
2023-02-19T02:14:11.747Z,93.57
2023-02-19T02:15:11.750Z,93.67
2023-02-19T02:16:11.732Z,93.47
2023-02-19T02:17:11.750Z,93.57
2023-02-19T02:18:11.688Z,93.67
2023-02-19T02:19:11.728Z,93.67
2023-02-19T02:20:11.711Z,93.57
2023-02-19T02:21:12.000Z,93.57
2023-02-19T02:22:11.669Z,93.57
2023-02-19T02:23:12.628Z,93.57
2023-02-19T02:24:11.631Z,93.67
2023-02-19T02:25:11.642Z,93.67
2023-02-19T02:26:11.635Z,93.57
2023-02-19T02:27:11.643Z,93.47
2023-02-19T02:28:11.582Z,93.37
2023-02-19T02:29:11.597Z,93.47
2023-02-19T02:30:11.620Z,93.37
2023-02-19T02:31:11.966Z,93.57
2023-02-19T02:32:11.645Z,93.77
2023-02-19T02:33:11.553Z,93.57
2023-02-19T02:34:11.512Z,93.57
2023-02-19T02:35:11.568Z,93.26
2023-02-19T02:36:11.490Z,93.26
2023-02-19T02:37:11.520Z,93.37
2023-02-19T02:38:11.492Z,93.16
2023-02-19T02:39:11.668Z,93.22
2023-02-19T02:40:11.449Z,93.22
2023-02-19T02:41:11.773Z,93.01
2023-02-19T02:42:11.459Z,92.81
2023-02-19T02:43:11.440Z,92.81
2023-02-19T02:44:11.490Z,92.91
2023-02-19T02:45:11.439Z,92.91
2023-02-19T02:46:11.553Z,92.81
2023-02-19T02:47:11.415Z,92.71
2023-02-19T02:48:11.359Z,92.60
2023-02-19T02:49:11.362Z,92.30
2023-02-19T02:50:11.393Z,92.30
2023-02-19T02:51:11.776Z,92.30
2023-02-19T02:52:11.324Z,92.30
2023-02-19T02:53:11.333Z,92.30
2023-02-19T02:54:11.387Z,92.40
2023-02-19T02:55:11.337Z,92.30
2023-02-19T02:56:11.272Z,92.30
2023-02-19T02:57:11.302Z,92.10
2023-02-19T02:58:11.242Z,91.99
2023-02-19T02:59:11.268Z,92.10
2023-02-19T03:00:11.220Z,91.78
2023-02-19T03:01:11.581Z,91.78
2023-02-19T03:02:11.567Z,91.89
2023-02-19T03:03:11.204Z,91.78
2023-02-19T03:04:12.153Z,91.78
2023-02-19T03:05:11.195Z,91.69
2023-02-19T03:06:11.154Z,91.69
2023-02-19T03:07:11.214Z,91.78
2023-02-19T03:08:11.134Z,91.78
2023-02-19T03:09:11.144Z,91.58
2023-02-19T03:10:11.123Z,91.69
2023-02-19T03:11:11.408Z,91.78
2023-02-19T03:12:11.119Z,91.89
2023-02-19T03:13:11.094Z,91.99
2023-02-19T03:14:11.089Z,91.99
2023-02-19T03:15:11.060Z,91.89
2023-02-19T03:16:11.096Z,91.78
2023-02-19T03:17:11.029Z,91.78
2023-02-19T03:18:11.037Z,91.78
2023-02-19T03:19:11.988Z,91.78
2023-02-19T03:20:11.027Z,91.89
2023-02-19T03:21:11.336Z,91.99
2023-02-19T03:22:11.004Z,91.78
2023-02-19T03:23:10.985Z,91.99
2023-02-19T03:24:10.974Z,91.99
2023-02-19T03:25:10.932Z,91.78
2023-02-19T03:26:10.962Z,91.99
2023-02-19T03:27:10.920Z,92.10
2023-02-19T03:28:10.934Z,92.30
2023-02-19T03:29:10.885Z,92.10
2023-02-19T03:30:10.972Z,91.89
2023-02-19T03:31:11.294Z,91.69
2023-02-19T03:32:10.960Z,91.58
2023-02-19T03:33:10.866Z,91.58
2023-02-19T03:34:10.849Z,91.27
2023-02-19T03:35:10.817Z,91.27
2023-02-19T03:36:10.894Z,91.58
2023-02-19T03:37:10.805Z,91.63
2023-02-19T03:38:10.822Z,91.52
2023-02-19T03:39:10.765Z,91.63
2023-02-19T03:40:10.790Z,91.73
2023-02-19T03:41:11.186Z,91.73
2023-02-19T03:42:10.785Z,91.48
2023-02-19T03:43:10.751Z,91.42
2023-02-19T03:44:10.766Z,91.52
2023-02-19T03:45:10.709Z,91.73
2023-02-19T03:46:10.766Z,91.83
2023-02-19T03:47:10.704Z,91.83
2023-02-19T03:48:10.723Z,91.93
2023-02-19T03:49:10.669Z,92.03
2023-02-19T03:50:10.679Z,92.14
2023-02-19T03:51:11.104Z,92.34
2023-02-19T03:52:10.684Z,92.44
2023-02-19T03:53:10.641Z,92.55
2023-02-19T03:54:10.634Z,92.44
2023-02-19T03:55:10.598Z,92.55
2023-02-19T03:56:10.626Z,92.85
2023-02-19T03:57:10.608Z,92.96
2023-02-19T03:58:10.611Z,92.96
2023-02-19T03:59:10.584Z,93.16
2023-02-19T04:00:10.593Z,93.16
2023-02-19T04:01:10.877Z,93.16
2023-02-19T04:02:10.633Z,93.16
2023-02-19T04:03:10.505Z,93.16
2023-02-19T04:04:10.542Z,93.26
2023-02-19T04:05:12.025Z,93.06
2023-02-19T04:06:10.513Z,92.85
2023-02-19T04:07:10.484Z,92.96
2023-02-19T04:08:10.474Z,92.85
2023-02-19T04:09:10.445Z,92.79
2023-02-19T04:10:10.466Z,92.69
2023-02-19T04:11:10.786Z,92.59
2023-02-19T04:12:10.447Z,92.49
2023-02-19T04:13:10.407Z,92.38
2023-02-19T04:14:11.397Z,92.18
2023-02-19T04:15:10.387Z,92.24
2023-02-19T04:16:10.393Z,92.14
2023-02-19T04:17:10.349Z,92.24
2023-02-19T04:18:10.361Z,92.14
2023-02-19T04:19:10.336Z,92.24
2023-02-19T04:20:10.363Z,92.38
2023-02-19T04:21:10.664Z,92.38
2023-02-19T04:22:10.331Z,92.69
2023-02-19T04:23:10.285Z,92.90
2023-02-19T04:24:10.421Z,92.90
2023-02-19T04:25:10.293Z,93.20
2023-02-19T04:26:10.272Z,93.41
2023-02-19T04:27:10.260Z,93.51
2023-02-19T04:28:10.263Z,93.71
2023-02-19T04:29:10.214Z,93.71
2023-02-19T04:30:10.290Z,93.30
2023-02-19T04:31:10.556Z,93.30
2023-02-19T04:32:10.203Z,93.41
2023-02-19T04:33:10.184Z,93.20
2023-02-19T04:34:10.187Z,93.00
2023-02-19T04:35:10.169Z,92.90
2023-02-19T04:36:10.169Z,92.49
2023-02-19T04:37:10.127Z,91.97
2023-02-19T04:38:10.142Z,91.87
2023-02-19T04:39:10.113Z,91.97
2023-02-19T04:40:10.118Z,92.02
2023-02-19T04:41:10.429Z,92.08
2023-02-19T04:42:10.115Z,92.12
2023-02-19T04:43:10.050Z,92.32
2023-02-19T04:44:10.088Z,92.43
2023-02-19T04:45:10.037Z,92.02
2023-02-19T04:46:10.093Z,92.22
2023-02-19T04:47:10.028Z,92.12
2023-02-19T04:48:10.022Z,91.91
2023-02-19T04:49:09.995Z,92.22
2023-02-19T04:50:10.006Z,92.53
2023-02-19T04:51:10.407Z,92.43
2023-02-19T04:52:09.983Z,92.32
2023-02-19T04:53:09.959Z,92.32
2023-02-19T04:54:09.967Z,92.32
2023-02-19T04:55:09.947Z,92.63
2023-02-19T04:56:09.947Z,92.53
2023-02-19T04:57:09.910Z,92.63
2023-02-19T04:58:09.925Z,92.63
2023-02-19T04:59:09.872Z,92.63
2023-02-19T05:00:09.892Z,92.83
2023-02-19T05:01:10.539Z,92.02
2023-02-19T05:02:09.865Z,92.57
2023-02-19T05:03:09.824Z,93.19
2023-02-19T05:04:09.889Z,93.70
2023-02-19T05:05:09.819Z,94.01
2023-02-19T05:06:09.867Z,94.11
2023-02-19T05:07:09.809Z,94.11
2023-02-19T05:08:09.806Z,93.90
2023-02-19T05:09:09.768Z,94.01
2023-02-19T05:10:09.812Z,94.01
2023-02-19T05:11:10.137Z,93.90
2023-02-19T05:12:09.798Z,93.85
2023-02-19T05:13:09.768Z,93.85
2023-02-19T05:14:09.732Z,93.74
2023-02-19T05:15:09.708Z,93.64
2023-02-19T05:16:09.751Z,93.74
2023-02-19T05:17:09.684Z,93.74
2023-02-19T05:18:09.761Z,93.02
2023-02-19T05:19:09.651Z,91.69
2023-02-19T05:20:09.677Z,91.08
2023-02-19T05:21:09.998Z,91.59
2023-02-19T05:22:09.676Z,91.38
2023-02-19T05:23:09.609Z,91.69
2023-02-19T05:24:09.628Z,91.18
2023-02-19T05:25:09.605Z,91.18
2023-02-19T05:26:09.645Z,91.08
2023-02-19T05:27:09.553Z,91.28
2023-02-19T05:28:09.588Z,91.38
2023-02-19T05:29:09.542Z,91.80
2023-02-19T05:30:09.583Z,91.84
2023-02-19T05:31:09.936Z,92.55
2023-02-19T05:32:09.571Z,92.66
2023-02-19T05:33:09.500Z,92.25
2023-02-19T05:34:09.512Z,92.14
2023-02-19T05:35:09.466Z,92.55
2023-02-19T05:36:09.502Z,91.94
2023-02-19T05:37:09.445Z,91.94
2023-02-19T05:38:09.461Z,91.94
2023-02-19T05:39:09.470Z,92.31
2023-02-19T05:40:09.486Z,92.31
2023-02-19T05:41:09.748Z,92.10
2023-02-19T05:42:09.439Z,92.31
2023-02-19T05:43:09.452Z,92.51
2023-02-19T05:44:09.400Z,92.41
2023-02-19T05:45:09.379Z,92.31
2023-02-19T05:46:09.443Z,92.10
2023-02-19T05:47:09.343Z,92.10
2023-02-19T05:48:09.381Z,92.10
2023-02-19T05:49:09.330Z,92.06
2023-02-19T05:50:09.351Z,92.27
2023-02-19T05:51:09.566Z,91.96
2023-02-19T05:52:09.361Z,92.06
2023-02-19T05:53:09.278Z,92.27
2023-02-19T05:54:09.454Z,92.36
2023-02-19T05:55:09.258Z,92.47
2023-02-19T05:56:09.282Z,92.68
2023-02-19T05:57:09.239Z,92.78
2023-02-19T05:58:09.267Z,92.88
2023-02-19T05:59:09.244Z,92.98
2023-02-19T06:00:09.278Z,93.08
2023-02-19T06:01:09.713Z,93.08
2023-02-19T06:02:09.229Z,92.98
2023-02-19T06:03:09.161Z,92.57
2023-02-19T06:04:09.267Z,92.57
2023-02-19T06:05:09.167Z,91.96
2023-02-19T06:06:09.149Z,91.86
2023-02-19T06:07:09.125Z,92.06
2023-02-19T06:08:09.139Z,91.86
2023-02-19T06:09:09.114Z,91.75
2023-02-19T06:10:09.110Z,92.16
2023-02-19T06:11:09.358Z,92.16
2023-02-19T06:12:09.083Z,92.16
2023-02-19T06:13:09.065Z,92.16
2023-02-19T06:14:09.068Z,92.16
2023-02-19T06:15:09.035Z,92.27
2023-02-19T06:16:09.086Z,92.06
2023-02-19T06:17:09.031Z,91.86
2023-02-19T06:18:09.049Z,91.96
2023-02-19T06:19:08.994Z,91.96
2023-02-19T06:20:09.001Z,92.06
2023-02-19T06:21:09.444Z,92.16
2023-02-19T06:22:08.970Z,92.16
2023-02-19T06:23:08.941Z,92.06
2023-02-19T06:24:09.036Z,92.06
2023-02-19T06:25:08.916Z,91.96
2023-02-19T06:26:08.949Z,91.65
2023-02-19T06:27:08.890Z,91.86
2023-02-19T06:28:09.862Z,91.65
2023-02-19T06:29:08.893Z,91.96
2023-02-19T06:30:08.912Z,92.16
2023-02-19T06:31:09.102Z,91.86
2023-02-19T06:32:09.078Z,91.65
2023-02-19T06:33:08.837Z,91.65
2023-02-19T06:34:08.856Z,91.55
2023-02-19T06:35:08.813Z,91.24
2023-02-19T06:36:08.834Z,91.14
2023-02-19T06:37:08.790Z,91.03
2023-02-19T06:38:08.805Z,90.93
2023-02-19T06:39:08.793Z,90.62
2023-02-19T06:40:08.783Z,90.73
2023-02-19T06:41:09.220Z,90.83
2023-02-19T06:42:08.761Z,90.83
2023-02-19T06:43:08.741Z,90.73
2023-02-19T06:44:08.733Z,90.73
2023-02-19T06:45:08.702Z,90.52
2023-02-19T06:46:08.724Z,90.01
2023-02-19T06:47:08.693Z,90.11
2023-02-19T06:48:08.708Z,90.22
2023-02-19T06:49:08.654Z,90.42
2023-02-19T06:50:08.681Z,90.52
2023-02-19T06:51:08.940Z,90.52
2023-02-19T06:52:08.696Z,90.73
2023-02-19T06:53:08.626Z,90.52
2023-02-19T06:54:08.629Z,90.73
2023-02-19T06:55:08.604Z,90.73
2023-02-19T06:56:08.617Z,90.42
2023-02-19T06:57:08.604Z,89.81
2023-02-19T06:58:08.578Z,90.22
2023-02-19T06:59:08.559Z,90.52
2023-02-19T07:00:08.578Z,90.42
2023-02-19T07:01:08.869Z,90.37
2023-02-19T07:02:08.553Z,90.37
2023-02-19T07:03:08.499Z,90.28
2023-02-19T07:04:08.580Z,90.07
2023-02-19T07:05:08.524Z,89.97
2023-02-19T07:06:08.505Z,89.76
2023-02-19T07:07:08.463Z,89.39
2023-02-19T07:08:08.501Z,89.60
2023-02-19T07:09:08.461Z,89.39
2023-02-19T07:10:08.448Z,89.09
2023-02-19T07:11:08.614Z,89.19
2023-02-19T07:12:08.441Z,89.09
2023-02-19T07:13:08.404Z,89.15
2023-02-19T07:14:08.407Z,89.15
2023-02-19T07:15:08.377Z,89.04
2023-02-19T07:16:08.418Z,89.04
2023-02-19T07:17:08.360Z,88.84
2023-02-19T07:18:08.358Z,88.88
2023-02-19T07:19:08.315Z,89.04
2023-02-19T07:20:08.367Z,88.78
2023-02-19T07:21:08.531Z,88.88
2023-02-19T07:22:08.328Z,89.09
2023-02-19T07:23:08.286Z,88.94
2023-02-19T07:24:08.301Z,89.04
2023-02-19T07:25:08.257Z,88.94
2023-02-19T07:26:08.264Z,88.17
2023-02-19T07:27:08.227Z,88.37
2023-02-19T07:28:08.245Z,88.37
2023-02-19T07:29:08.231Z,88.17
2023-02-19T07:30:08.241Z,88.17
2023-02-19T07:31:08.449Z,88.12
2023-02-19T07:32:08.213Z,88.12
2023-02-19T07:33:10.441Z,88.12
2023-02-19T07:34:08.176Z,88.12
2023-02-19T07:35:08.166Z,88.43
2023-02-19T07:36:08.149Z,88.12
2023-02-19T07:37:08.155Z,88.33
2023-02-19T07:38:08.111Z,88.64
2023-02-19T07:39:10.136Z,88.53
2023-02-19T07:40:08.093Z,88.12
2023-02-19T07:41:08.127Z,87.71
2023-02-19T07:42:08.074Z,87.82
2023-02-19T07:43:08.075Z,87.51
2023-02-19T07:44:08.050Z,87.51
2023-02-19T07:45:08.063Z,87.20
2023-02-19T07:46:08.035Z,87.30
2023-02-19T07:47:08.038Z,87.51
2023-02-19T07:48:08.009Z,87.82
2023-02-19T07:49:08.059Z,87.41
2023-02-19T07:50:07.981Z,87.85
2023-02-19T07:51:08.076Z,87.82
2023-02-19T07:52:07.949Z,87.82
2023-02-19T07:53:07.964Z,87.82
2023-02-19T07:54:07.958Z,87.51
2023-02-19T07:55:07.943Z,87.51
2023-02-19T07:56:07.919Z,87.41
2023-02-19T07:57:07.927Z,87.61
2023-02-19T07:58:07.914Z,87.71
2023-02-19T07:59:07.904Z,87.41
2023-02-19T08:00:07.873Z,87.51
2023-02-19T08:01:07.946Z,87.51
2023-02-19T08:02:07.846Z,86.90
2023-02-19T08:03:07.907Z,87.30
2023-02-19T08:04:07.835Z,87.61
2023-02-19T08:05:07.843Z,87.71
2023-02-19T08:06:07.838Z,87.92
2023-02-19T08:07:07.813Z,87.92
2023-02-19T08:08:07.789Z,87.51
2023-02-19T08:09:07.793Z,87.51
2023-02-19T08:10:07.772Z,87.30
2023-02-19T08:11:07.819Z,87.41
2023-02-19T08:12:07.734Z,87.30
2023-02-19T08:13:07.744Z,87.61
2023-02-19T08:14:07.739Z,87.41
2023-02-19T08:15:07.729Z,87.10
2023-02-19T08:16:17.295Z,87.10
2023-02-19T08:17:08.763Z,87.20
2023-02-19T08:18:07.681Z,87.61
2023-02-19T08:19:07.711Z,87.82
2023-02-19T08:20:07.660Z,87.61
2023-02-19T08:21:07.718Z,87.61
2023-02-19T08:22:07.626Z,87.41
2023-02-19T08:23:07.631Z,87.82
2023-02-19T08:24:07.602Z,88.02
2023-02-19T08:25:07.644Z,88.23
2023-02-19T08:26:07.590Z,88.27
2023-02-19T08:27:07.594Z,88.57
2023-02-19T08:28:07.561Z,88.68
2023-02-19T08:29:07.594Z,88.72
2023-02-19T08:30:07.546Z,88.70
2023-02-19T08:31:07.705Z,89.97
2023-02-19T08:32:07.564Z,91.49
2023-02-19T08:33:07.537Z,92.67
2023-02-19T08:34:07.495Z,93.59
2023-02-19T08:35:07.517Z,94.31
2023-02-19T08:36:07.490Z,94.26
2023-02-19T08:37:07.489Z,94.46
2023-02-19T08:38:07.444Z,94.77
2023-02-19T08:39:07.471Z,94.87
2023-02-19T08:40:07.454Z,94.92
2023-02-19T08:41:07.492Z,95.33
2023-02-19T08:42:07.401Z,95.84
2023-02-19T08:43:07.408Z,95.74
2023-02-19T08:44:07.376Z,95.99
2023-02-19T08:45:07.406Z,95.95
2023-02-19T08:46:07.509Z,96.05
2023-02-19T08:47:07.360Z,95.78
2023-02-19T08:48:07.342Z,95.89
2023-02-19T08:49:07.350Z,95.37
2023-02-19T08:50:07.329Z,95.78
2023-02-19T08:51:07.326Z,95.37
2023-02-19T08:52:07.307Z,95.17
2023-02-19T08:53:07.307Z,94.65
2023-02-19T08:54:07.260Z,93.99
2023-02-19T08:55:07.330Z,93.88
2023-02-19T08:56:07.245Z,93.58
2023-02-19T08:57:07.246Z,93.37
2023-02-19T08:58:07.214Z,93.58
2023-02-19T08:59:07.244Z,93.68
2023-02-19T09:00:07.200Z,93.27
2023-02-19T09:01:07.234Z,92.86
2023-02-19T09:02:07.223Z,93.21
2023-02-19T09:03:07.216Z,93.21
2023-02-19T09:04:07.162Z,93.83
2023-02-19T09:05:07.181Z,94.34
2023-02-19T09:06:07.165Z,93.93
2023-02-19T09:07:07.157Z,92.96
2023-02-19T09:08:07.100Z,93.01
2023-02-19T09:09:07.121Z,93.21
2023-02-19T09:10:07.224Z,93.48
2023-02-19T09:11:07.165Z,92.55
2023-02-19T09:12:07.114Z,92.34
2023-02-19T09:13:07.162Z,92.44
2023-02-19T09:14:07.085Z,91.93
2023-02-19T09:15:07.080Z,92.34
2023-02-19T09:16:07.344Z,92.14
2023-02-19T09:17:07.069Z,91.56
2023-02-19T09:18:07.039Z,92.38
2023-02-19T09:19:07.074Z,92.69
2023-02-19T09:20:06.999Z,92.29
2023-02-19T09:21:07.035Z,92.69
2023-02-19T09:22:07.052Z,92.38
2023-02-19T09:23:06.972Z,91.97
2023-02-19T09:24:06.981Z,91.72
2023-02-19T09:25:06.963Z,91.56
2023-02-19T09:26:06.987Z,92.03
2023-02-19T09:27:06.933Z,92.24
2023-02-19T09:28:06.888Z,92.65
2023-02-19T09:29:06.994Z,92.44
2023-02-19T09:30:06.929Z,92.65
2023-02-19T09:31:07.172Z,92.55
2023-02-19T09:32:06.862Z,91.31
2023-02-19T09:33:06.890Z,90.80
2023-02-19T09:34:06.866Z,90.80
2023-02-19T09:35:06.854Z,90.90
2023-02-19T09:36:06.867Z,91.05
2023-02-19T09:37:06.814Z,91.15
2023-02-19T09:38:06.810Z,92.18
2023-02-19T09:39:06.819Z,92.29
2023-02-19T09:40:06.815Z,92.18
2023-02-19T09:41:06.812Z,92.18
2023-02-19T09:42:06.744Z,92.03
2023-02-19T09:43:06.755Z,91.93
2023-02-19T09:44:06.716Z,92.14
2023-02-19T09:45:06.757Z,92.14
2023-02-19T09:46:06.820Z,91.72
2023-02-19T09:47:06.772Z,91.72
2023-02-19T09:48:06.699Z,91.83
2023-02-19T09:49:06.715Z,92.03
2023-02-19T09:50:06.679Z,91.42
2023-02-19T09:51:06.675Z,91.87
2023-02-19T09:52:06.638Z,92.49
2023-02-19T09:53:06.637Z,93.11
2023-02-19T09:54:06.606Z,93.41
2023-02-19T09:55:06.651Z,93.11
2023-02-19T09:56:06.598Z,92.69
2023-02-19T09:57:06.638Z,92.80
2023-02-19T09:58:06.578Z,93.31
2023-02-19T09:59:06.580Z,92.90
2023-02-19T10:00:07.970Z,92.84
2023-02-19T10:01:06.556Z,93.15
2023-02-19T10:02:06.545Z,93.25
2023-02-19T10:03:06.530Z,93.46
2023-02-19T10:04:06.491Z,93.77
2023-02-19T10:05:06.531Z,93.87
2023-02-19T10:06:07.787Z,93.83
2023-02-19T10:07:06.493Z,93.83
2023-02-19T10:08:06.468Z,93.21
2023-02-19T10:09:06.482Z,93.21
2023-02-19T10:10:06.432Z,92.59
2023-02-19T10:11:06.471Z,92.94
2023-02-19T10:12:06.402Z,92.63
2023-02-19T10:13:06.419Z,93.15
2023-02-19T10:14:06.381Z,93.46
2023-02-19T10:15:06.400Z,93.77
2023-02-19T10:16:06.470Z,93.77
2023-02-19T10:17:06.369Z,92.84
2023-02-19T10:18:06.370Z,92.94
2023-02-19T10:19:06.393Z,92.80
2023-02-19T10:20:06.308Z,92.69
2023-02-19T10:21:06.319Z,92.69
2023-02-19T10:22:06.299Z,93.05
2023-02-19T10:23:06.296Z,93.66
2023-02-19T10:24:06.285Z,93.77
2023-02-19T10:25:06.291Z,93.66
2023-02-19T10:26:06.300Z,93.35
2023-02-19T10:27:06.259Z,93.25
2023-02-19T10:28:06.272Z,93.35
2023-02-19T10:29:06.242Z,93.98
2023-02-19T10:30:06.218Z,94.12
2023-02-19T10:31:06.267Z,94.32
2023-02-19T10:32:06.207Z,94.64
2023-02-19T10:33:06.208Z,94.78
2023-02-19T10:34:06.158Z,96.12
2023-02-19T10:35:06.189Z,96.59
2023-02-19T10:36:06.169Z,95.77
2023-02-19T10:37:06.141Z,95.67
2023-02-19T10:38:06.123Z,95.67
2023-02-19T10:39:06.115Z,95.52
2023-02-19T10:40:06.106Z,95.15
2023-02-19T10:41:06.121Z,95.36
2023-02-19T10:42:06.087Z,95.83
2023-02-19T10:43:06.102Z,95.31
2023-02-19T10:44:06.038Z,95.00
2023-02-19T10:45:06.081Z,94.59
2023-02-19T10:46:06.124Z,94.59
2023-02-19T10:47:06.034Z,94.34
2023-02-19T10:48:06.009Z,94.03
2023-02-19T10:49:06.073Z,93.62
2023-02-19T10:50:05.982Z,93.77
2023-02-19T10:51:06.014Z,94.28
2023-02-19T10:52:05.958Z,94.59
2023-02-19T10:53:05.987Z,94.38
2023-02-19T10:54:05.978Z,93.98
2023-02-19T10:55:05.949Z,94.08
2023-02-19T10:56:05.955Z,93.98
2023-02-19T10:57:05.981Z,94.38
2023-02-19T10:58:05.912Z,95.00
2023-02-19T10:59:05.929Z,94.90
2023-02-19T11:00:05.886Z,94.38
2023-02-19T11:01:06.306Z,94.38
2023-02-19T11:02:05.861Z,94.28
2023-02-19T11:03:05.875Z,93.77
2023-02-19T11:04:05.865Z,93.87
2023-02-19T11:05:05.883Z,93.93
2023-02-19T11:06:05.817Z,94.03
2023-02-19T11:07:05.830Z,93.83
2023-02-19T11:08:05.839Z,93.11
2023-02-19T11:09:05.805Z,92.53
2023-02-19T11:10:05.763Z,92.84
2023-02-19T11:11:05.826Z,92.84
2023-02-19T11:12:06.438Z,93.46
2023-02-19T11:13:05.759Z,93.15
2023-02-19T11:14:05.717Z,93.35
2023-02-19T11:15:05.729Z,93.31
2023-02-19T11:16:05.758Z,92.80
2023-02-19T11:17:05.847Z,92.59
2023-02-19T11:18:05.711Z,92.33
2023-02-19T11:19:05.684Z,92.63
2023-02-19T11:20:05.708Z,92.53
2023-02-19T11:21:05.786Z,92.63
2023-02-19T11:22:05.706Z,93.15
2023-02-19T11:23:05.699Z,93.15
2023-02-19T11:24:05.667Z,93.46
2023-02-19T11:25:05.684Z,93.56
2023-02-19T11:26:05.711Z,93.77
2023-02-19T11:27:05.687Z,93.56
2023-02-19T11:28:05.616Z,93.50
2023-02-19T11:29:05.699Z,93.81
2023-02-19T11:30:05.717Z,94.02
2023-02-19T11:31:05.679Z,94.64
2023-02-19T11:32:05.663Z,94.74
2023-02-19T11:33:05.611Z,94.43
2023-02-19T11:34:05.549Z,94.32
2023-02-19T11:35:05.603Z,94.64
2023-02-19T11:36:05.563Z,94.95
2023-02-19T11:37:05.560Z,94.64
2023-02-19T11:38:05.474Z,94.53
2023-02-19T11:39:05.546Z,93.71
2023-02-19T11:40:05.508Z,93.87
2023-02-19T11:41:05.479Z,93.46
2023-02-19T11:42:05.481Z,93.25
2023-02-19T11:43:05.439Z,93.56
2023-02-19T11:44:05.383Z,93.66
2023-02-19T11:45:05.393Z,92.63
2023-02-19T11:46:05.485Z,92.49
2023-02-19T11:47:05.387Z,92.18
2023-02-19T11:48:05.402Z,91.46
2023-02-19T11:49:05.322Z,91.25
2023-02-19T11:50:05.346Z,91.66
2023-02-19T11:51:05.308Z,92.18
2023-02-19T11:52:05.353Z,92.18
2023-02-19T11:53:05.282Z,91.66
2023-02-19T11:54:05.308Z,91.56
2023-02-19T11:55:05.272Z,91.91
2023-02-19T11:56:05.311Z,92.22
2023-02-19T11:57:05.242Z,92.63
2023-02-19T11:58:05.260Z,92.29
2023-02-19T11:59:05.242Z,92.38
2023-02-19T12:00:05.232Z,92.29
2023-02-19T12:01:05.206Z,91.56
2023-02-19T12:02:05.233Z,91.87
2023-02-19T12:03:05.177Z,92.18
2023-02-19T12:04:05.206Z,91.66
2023-02-19T12:05:05.189Z,91.66
2023-02-19T12:06:05.170Z,90.53
2023-02-19T12:07:05.135Z,90.22
2023-02-19T12:08:05.168Z,90.33
2023-02-19T12:09:05.119Z,90.33
2023-02-19T12:10:05.124Z,89.50
2023-02-19T12:11:05.087Z,89.81
2023-02-19T12:12:05.105Z,90.64
2023-02-19T12:13:05.074Z,90.43
2023-02-19T12:14:05.106Z,90.94
2023-02-19T12:15:05.045Z,91.25
2023-02-19T12:16:05.060Z,91.56
2023-02-19T12:17:05.022Z,91.05
2023-02-19T12:18:05.056Z,90.12
2023-02-19T12:19:05.037Z,89.77
2023-02-19T12:20:05.038Z,89.77
2023-02-19T12:21:04.990Z,89.77
2023-02-19T12:22:05.006Z,89.87
2023-02-19T12:23:04.964Z,89.97
2023-02-19T12:24:05.048Z,89.97
2023-02-19T12:25:05.135Z,87.71
2023-02-19T12:26:05.007Z,87.03
2023-02-19T12:27:04.907Z,86.61
2023-02-19T12:28:05.011Z,86.21
2023-02-19T12:29:04.886Z,86.41
2023-02-19T12:30:04.928Z,86.52
2023-02-19T12:31:04.879Z,86.82
2023-02-19T12:32:04.923Z,87.24
2023-02-19T12:33:04.848Z,87.13
2023-02-19T12:34:04.851Z,87.19
2023-02-19T12:35:04.819Z,86.06
2023-02-19T12:36:04.832Z,85.65
2023-02-19T12:37:04.792Z,84.21
2023-02-19T12:38:04.830Z,84.21
2023-02-19T12:39:04.813Z,84.21
2023-02-19T12:40:04.789Z,84.11
2023-02-19T12:41:04.774Z,84.52
2023-02-19T12:42:04.770Z,84.42
2023-02-19T12:43:04.742Z,84.21
2023-02-19T12:44:04.765Z,84.52
2023-02-19T12:45:04.724Z,84.62
2023-02-19T12:46:04.797Z,84.11
2023-02-19T12:47:04.696Z,81.77
2023-02-19T12:48:04.694Z,81.57
2023-02-19T12:49:04.696Z,81.47
2023-02-19T12:50:04.668Z,81.16
2023-02-19T12:51:04.654Z,81.33
2023-02-19T12:52:04.656Z,81.63